Albin, Mississippi
Current Conditions -  °F | °C
As of 10:15 PM on Friday 19 Dec 2014 (Local Time) from KCKM Reporting Station
Overcast Overcast  
Wind Chill: 36°   Ceiling: 3900
Heat Index: 41°   Visibility: 10mi
Dew Point: 39°   Wind: 7mph
Humidity: 93%   Direction: 40°NE
Pressure: 30.24"   Gusts: NA
Location:  33.9477°N, 90.3476°W
Report Text: KCKM 200415Z AUTO 04006KT 10SM BKN039 OVC080 05/04 A3024 RMK AO1
Loading
Personal Weather Stations






























Interactive Weather Map New forecast layout! Learn more

10-Day Weather Forecast

Advertisements
Track Severe Weather on mobile